sensor_id;sensor_type;location;lat;lon;timestamp;P1;durP1;ratioP1;P2;durP2;ratioP2
39324;SDS011;25037;49.488;9.900;2023-02-01T00:01:07;6.32;;;3.45;;
39324;SDS011;25037;49.488;9.900;2023-02-01T00:03:34;7.90;;;3.25;;
39324;SDS011;25037;49.488;9.900;2023-02-01T00:06:01;8.00;;;3.40;;
39324;SDS011;25037;49.488;9.900;2023-02-01T00:08:28;5.72;;;3.60;;
39324;SDS011;25037;49.488;9.900;2023-02-01T00:11:02;5.80;;;3.90;;
39324;SDS011;25037;49.488;9.900;2023-02-01T00:13:40;6.40;;;3.35;;
39324;SDS011;25037;49.488;9.900;2023-02-01T00:18:34;9.05;;;4.13;;
39324;SDS011;25037;49.488;9.900;2023-02-01T00:21:01;7.18;;;3.90;;
39324;SDS011;25037;49.488;9.900;2023-02-01T00:23:28;9.48;;;4.47;;
39324;SDS011;25037;49.488;9.900;2023-02-01T00:25:59;5.93;;;3.78;;
39324;SDS011;25037;49.488;9.900;2023-02-01T00:28:27;6.72;;;3.95;;
39324;SDS011;25037;49.488;9.900;2023-02-01T00:30:58;7.05;;;3.85;;
39324;SDS011;25037;49.488;9.900;2023-02-01T00:33:29;6.82;;;3.60;;
39324;SDS011;25037;49.488;9.900;2023-02-01T00:35:57;7.30;;;4.05;;
39324;SDS011;25037;49.488;9.900;2023-02-01T00:38:25;5.40;;;3.15;;
39324;SDS011;25037;49.488;9.900;2023-02-01T00:40:53;7.43;;;3.63;;
39324;SDS011;25037;49.488;9.900;2023-02-01T00:43:20;5.40;;;3.50;;
39324;SDS011;25037;49.488;9.900;2023-02-01T00:45:47;7.35;;;3.90;;
39324;SDS011;25037;49.488;9.900;2023-02-01T00:48:13;7.60;;;4.00;;
39324;SDS011;25037;49.488;9.900;2023-02-01T00:50:43;5.35;;;3.38;;
39324;SDS011;25037;49.488;9.900;2023-02-01T00:53:10;6.50;;;3.67;;
39324;SDS011;25037;49.488;9.900;2023-02-01T00:55:37;5.72;;;3.55;;
39324;SDS011;25037;49.488;9.900;2023-02-01T00:58:04;5.30;;;3.10;;
39324;SDS011;25037;49.488;9.900;2023-02-01T01:00:32;5.55;;;3.38;;
39324;SDS011;25037;49.488;9.900;2023-02-01T01:02:59;5.38;;;3.63;;
39324;SDS011;25037;49.488;9.900;2023-02-01T01:05:26;7.38;;;3.35;;
39324;SDS011;25037;49.488;9.900;2023-02-01T01:07:53;7.82;;;4.35;;
39324;SDS011;25037;49.488;9.900;2023-02-01T01:10:20;4.57;;;3.03;;
39324;SDS011;25037;49.488;9.900;2023-02-01T01:12:47;5.22;;;3.05;;
39324;SDS011;25037;49.488;9.900;2023-02-01T01:15:14;7.57;;;3.67;;
39324;SDS011;25037;49.488;9.900;2023-02-01T01:17:40;4.85;;;3.30;;
39324;SDS011;25037;49.488;9.900;2023-02-01T01:20:07;5.32;;;3.30;;
39324;SDS011;25037;49.488;9.900;2023-02-01T01:22:35;6.25;;;3.40;;
39324;SDS011;25037;49.488;9.900;2023-02-01T01:25:01;6.60;;;4.13;;
39324;SDS011;25037;49.488;9.900;2023-02-01T01:27:28;5.20;;;3.47;;
39324;SDS011;25037;49.488;9.900;2023-02-01T01:29:55;5.90;;;3.42;;
39324;SDS011;25037;49.488;9.900;2023-02-01T01:32:21;5.22;;;3.97;;
39324;SDS011;25037;49.488;9.900;2023-02-01T01:34:48;6.00;;;3.35;;
39324;SDS011;25037;49.488;9.900;2023-02-01T01:37:15;6.15;;;3.10;;
39324;SDS011;25037;49.488;9.900;2023-02-01T01:39:41;8.68;;;4.32;;
39324;SDS011;25037;49.488;9.900;2023-02-01T01:42:10;7.15;;;3.80;;
39324;SDS011;25037;49.488;9.900;2023-02-01T01:44:58;6.20;;;4.00;;
39324;SDS011;25037;49.488;9.900;2023-02-01T01:47:31;5.65;;;3.60;;
39324;SDS011;25037;49.488;9.900;2023-02-01T01:50:06;5.93;;;3.83;;
39324;SDS011;25037;49.488;9.900;2023-02-01T01:52:36;5.30;;;3.30;;
39324;SDS011;25037;49.488;9.900;2023-02-01T01:55:05;6.35;;;3.67;;
39324;SDS011;25037;49.488;9.900;2023-02-01T01:57:36;5.65;;;3.83;;
39324;SDS011;25037;49.488;9.900;2023-02-01T02:00:07;7.88;;;4.38;;
39324;SDS011;25037;49.488;9.900;2023-02-01T02:02:43;7.43;;;4.10;;
39324;SDS011;25037;49.488;9.900;2023-02-01T02:07:42;6.65;;;3.80;;
39324;SDS011;25037;49.488;9.900;2023-02-01T02:10:12;6.43;;;4.32;;
39324;SDS011;25037;49.488;9.900;2023-02-01T02:12:41;7.40;;;4.22;;
39324;SDS011;25037;49.488;9.900;2023-02-01T02:15:10;6.38;;;4.40;;
39324;SDS011;25037;49.488;9.900;2023-02-01T02:23:18;5.57;;;4.30;;
39324;SDS011;25037;49.488;9.900;2023-02-01T02:26:00;7.57;;;4.65;;
39324;SDS011;25037;49.488;9.900;2023-02-01T02:29:07;6.13;;;4.20;;
39324;SDS011;25037;49.488;9.900;2023-02-01T02:32:00;7.07;;;4.00;;
39324;SDS011;25037;49.488;9.900;2023-02-01T02:40:29;7.65;;;4.78;;
39324;SDS011;25037;49.488;9.900;2023-02-01T02:49:05;6.30;;;4.47;;
39324;SDS011;25037;49.488;9.900;2023-02-01T02:51:49;6.97;;;4.93;;
39324;SDS011;25037;49.488;9.900;2023-02-01T02:54:39;7.85;;;4.25;;
39324;SDS011;25037;49.488;9.900;2023-02-01T02:57:17;5.72;;;4.00;;
39324;SDS011;25037;49.488;9.900;2023-02-01T03:02:54;6.38;;;4.00;;
39324;SDS011;25037;49.488;9.900;2023-02-01T03:05:40;7.63;;;4.45;;
39324;SDS011;25037;49.488;9.900;2023-02-01T03:08:14;7.97;;;4.72;;
39324;SDS011;25037;49.488;9.900;2023-02-01T03:18:58;6.20;;;4.38;;
39324;SDS011;25037;49.488;9.900;2023-02-01T03:24:14;5.88;;;3.80;;
39324;SDS011;25037;49.488;9.900;2023-02-01T03:27:02;5.90;;;4.10;;
39324;SDS011;25037;49.488;9.900;2023-02-01T03:29:38;6.25;;;4.28;;
39324;SDS011;25037;49.488;9.900;2023-02-01T03:32:10;6.68;;;4.93;;
39324;SDS011;25037;49.488;9.900;2023-02-01T03:34:37;6.45;;;4.35;;
39324;SDS011;25037;49.488;9.900;2023-02-01T03:37:05;7.65;;;4.50;;
39324;SDS011;25037;49.488;9.900;2023-02-01T03:39:37;7.50;;;4.32;;
39324;SDS011;25037;49.488;9.900;2023-02-01T03:42:14;5.82;;;4.10;;
39324;SDS011;25037;49.488;9.900;2023-02-01T03:47:21;7.78;;;4.55;;
39324;SDS011;25037;49.488;9.900;2023-02-01T03:49:55;5.93;;;3.92;;
39324;SDS011;25037;49.488;9.900;2023-02-01T03:52:42;7.37;;;4.33;;
39324;SDS011;25037;49.488;9.900;2023-02-01T03:55:16;6.60;;;4.47;;
39324;SDS011;25037;49.488;9.900;2023-02-01T03:57:48;6.63;;;4.30;;
39324;SDS011;25037;49.488;9.900;2023-02-01T04:00:22;9.15;;;4.57;;
39324;SDS011;25037;49.488;9.900;2023-02-01T04:02:51;8.05;;;4.35;;
39324;SDS011;25037;49.488;9.900;2023-02-01T04:05:19;5.75;;;4.13;;
39324;SDS011;25037;49.488;9.900;2023-02-01T04:07:46;7.82;;;4.25;;
39324;SDS011;25037;49.488;9.900;2023-02-01T04:10:13;6.75;;;4.22;;
39324;SDS011;25037;49.488;9.900;2023-02-01T04:12:44;8.25;;;4.72;;
39324;SDS011;25037;49.488;9.900;2023-02-01T04:15:11;8.70;;;4.80;;
39324;SDS011;25037;49.488;9.900;2023-02-01T04:17:38;7.43;;;4.40;;
39324;SDS011;25037;49.488;9.900;2023-02-01T04:20:05;6.53;;;4.32;;
39324;SDS011;25037;49.488;9.900;2023-02-01T04:22:32;7.60;;;4.05;;
39324;SDS011;25037;49.488;9.900;2023-02-01T04:24:58;8.15;;;4.85;;
39324;SDS011;25037;49.488;9.900;2023-02-01T04:27:25;5.57;;;3.72;;
39324;SDS011;25037;49.488;9.900;2023-02-01T04:29:52;7.28;;;4.18;;
39324;SDS011;25037;49.488;9.900;2023-02-01T04:32:19;8.13;;;4.10;;
39324;SDS011;25037;49.488;9.900;2023-02-01T04:34:45;7.90;;;4.18;;
39324;SDS011;25037;49.488;9.900;2023-02-01T04:37:12;6.13;;;3.90;;
39324;SDS011;25037;49.488;9.900;2023-02-01T04:39:39;5.82;;;4.00;;
39324;SDS011;25037;49.488;9.900;2023-02-01T04:42:05;5.45;;;3.67;;
39324;SDS011;25037;49.488;9.900;2023-02-01T04:44:32;6.68;;;3.50;;
39324;SDS011;25037;49.488;9.900;2023-02-01T04:46:59;5.88;;;3.40;;
39324;SDS011;25037;49.488;9.900;2023-02-01T04:49:25;5.53;;;3.42;;
39324;SDS011;25037;49.488;9.900;2023-02-01T04:51:52;5.55;;;3.50;;
39324;SDS011;25037;49.488;9.900;2023-02-01T04:54:19;6.28;;;3.58;;
39324;SDS011;25037;49.488;9.900;2023-02-01T04:56:46;5.90;;;3.20;;
39324;SDS011;25037;49.488;9.900;2023-02-01T04:59:12;6.93;;;3.88;;
39324;SDS011;25037;49.488;9.900;2023-02-01T05:01:39;5.32;;;3.10;;
39324;SDS011;25037;49.488;9.900;2023-02-01T05:04:06;5.00;;;2.58;;
39324;SDS011;25037;49.488;9.900;2023-02-01T05:06:33;4.00;;;2.50;;
39324;SDS011;25037;49.488;9.900;2023-02-01T05:08:59;4.13;;;2.67;;
39324;SDS011;25037;49.488;9.900;2023-02-01T05:11:26;5.47;;;3.00;;
39324;SDS011;25037;49.488;9.900;2023-02-01T05:14:12;5.53;;;2.90;;
39324;SDS011;25037;49.488;9.900;2023-02-01T05:16:38;7.13;;;3.83;;
39324;SDS011;25037;49.488;9.900;2023-02-01T05:19:05;5.72;;;3.10;;
39324;SDS011;25037;49.488;9.900;2023-02-01T05:21:32;10.68;;;3.60;;
39324;SDS011;25037;49.488;9.900;2023-02-01T05:23:58;7.20;;;2.38;;
39324;SDS011;25037;49.488;9.900;2023-02-01T05:26:40;3.90;;;2.22;;
39324;SDS011;25037;49.488;9.900;2023-02-01T05:29:07;4.20;;;2.38;;
39324;SDS011;25037;49.488;9.900;2023-02-01T05:31:35;4.00;;;2.33;;
39324;SDS011;25037;49.488;9.900;2023-02-01T05:34:02;4.18;;;2.13;;
39324;SDS011;25037;49.488;9.900;2023-02-01T05:36:29;3.42;;;2.20;;
39324;SDS011;25037;49.488;9.900;2023-02-01T05:38:56;4.10;;;2.22;;
39324;SDS011;25037;49.488;9.900;2023-02-01T05:41:23;5.30;;;2.92;;
39324;SDS011;25037;49.488;9.900;2023-02-01T05:43:49;4.57;;;2.40;;
39324;SDS011;25037;49.488;9.900;2023-02-01T05:46:16;4.97;;;2.63;;
39324;SDS011;25037;49.488;9.900;2023-02-01T05:48:43;5.60;;;2.42;;
39324;SDS011;25037;49.488;9.900;2023-02-01T05:51:10;5.47;;;2.58;;
39324;SDS011;25037;49.488;9.900;2023-02-01T05:53:37;4.13;;;2.35;;
39324;SDS011;25037;49.488;9.900;2023-02-01T05:56:04;3.78;;;2.22;;
39324;SDS011;25037;49.488;9.900;2023-02-01T05:58:31;5.00;;;2.42;;
39324;SDS011;25037;49.488;9.900;2023-02-01T06:01:01;5.90;;;3.17;;
39324;SDS011;25037;49.488;9.900;2023-02-01T06:03:29;4.55;;;2.63;;
39324;SDS011;25037;49.488;9.900;2023-02-01T06:05:56;4.93;;;2.85;;
39324;SDS011;25037;49.488;9.900;2023-02-01T06:08:22;6.25;;;3.35;;
39324;SDS011;25037;49.488;9.900;2023-02-01T06:10:57;5.05;;;3.13;;
39324;SDS011;25037;49.488;9.900;2023-02-01T06:13:24;4.30;;;2.45;;
39324;SDS011;25037;49.488;9.900;2023-02-01T06:15:51;5.05;;;2.45;;
39324;SDS011;25037;49.488;9.900;2023-02-01T06:18:18;4.85;;;2.22;;
39324;SDS011;25037;49.488;9.900;2023-02-01T06:20:45;3.10;;;1.65;;
39324;SDS011;25037;49.488;9.900;2023-02-01T06:23:17;3.97;;;2.35;;
39324;SDS011;25037;49.488;9.900;2023-02-01T06:25:44;2.90;;;1.70;;
39324;SDS011;25037;49.488;9.900;2023-02-01T06:28:11;3.45;;;1.73;;
39324;SDS011;25037;49.488;9.900;2023-02-01T06:30:37;2.83;;;1.45;;
39324;SDS011;25037;49.488;9.900;2023-02-01T06:33:07;3.30;;;1.58;;
39324;SDS011;25037;49.488;9.900;2023-02-01T06:35:33;3.63;;;1.45;;
39324;SDS011;25037;49.488;9.900;2023-02-01T06:38:00;3.33;;;1.60;;
39324;SDS011;25037;49.488;9.900;2023-02-01T06:40:27;2.67;;;1.35;;
39324;SDS011;25037;49.488;9.900;2023-02-01T06:42:53;4.45;;;1.70;;
39324;SDS011;25037;49.488;9.900;2023-02-01T06:45:20;3.38;;;1.80;;
39324;SDS011;25037;49.488;9.900;2023-02-01T06:47:47;4.43;;;1.80;;
39324;SDS011;25037;49.488;9.900;2023-02-01T06:50:13;3.63;;;1.83;;
39324;SDS011;25037;49.488;9.900;2023-02-01T06:52:40;3.70;;;1.52;;
39324;SDS011;25037;49.488;9.900;2023-02-01T06:55:07;3.17;;;1.55;;
39324;SDS011;25037;49.488;9.900;2023-02-01T06:57:34;3.20;;;1.35;;
39324;SDS011;25037;49.488;9.900;2023-02-01T07:00:02;2.83;;;1.40;;
39324;SDS011;25037;49.488;9.900;2023-02-01T07:02:29;2.78;;;1.20;;
39324;SDS011;25037;49.488;9.900;2023-02-01T07:04:56;2.55;;;1.15;;
39324;SDS011;25037;49.488;9.900;2023-02-01T07:07:23;2.20;;;0.93;;
39324;SDS011;25037;49.488;9.900;2023-02-01T07:09:50;1.95;;;0.77;;
39324;SDS011;25037;49.488;9.900;2023-02-01T07:12:16;2.50;;;0.90;;
39324;SDS011;25037;49.488;9.900;2023-02-01T07:14:44;1.50;;;0.60;;
39324;SDS011;25037;49.488;9.900;2023-02-01T07:17:11;1.88;;;0.57;;
39324;SDS011;25037;49.488;9.900;2023-02-01T07:19:38;1.63;;;0.90;;
39324;SDS011;25037;49.488;9.900;2023-02-01T07:22:04;1.92;;;0.93;;
39324;SDS011;25037;49.488;9.900;2023-02-01T07:24:31;2.40;;;1.17;;
39324;SDS011;25037;49.488;9.900;2023-02-01T07:26:59;2.30;;;1.15;;
39324;SDS011;25037;49.488;9.900;2023-02-01T07:29:26;3.63;;;1.38;;
39324;SDS011;25037;49.488;9.900;2023-02-01T07:31:53;3.78;;;1.20;;
39324;SDS011;25037;49.488;9.900;2023-02-01T07:34:19;3.42;;;1.80;;
39324;SDS011;25037;49.488;9.900;2023-02-01T07:36:46;3.60;;;1.20;;
39324;SDS011;25037;49.488;9.900;2023-02-01T07:39:12;4.55;;;1.20;;
39324;SDS011;25037;49.488;9.900;2023-02-01T07:41:39;2.53;;;1.50;;
39324;SDS011;25037;49.488;9.900;2023-02-01T07:44:06;4.30;;;1.70;;
39324;SDS011;25037;49.488;9.900;2023-02-01T07:46:33;3.85;;;1.60;;
39324;SDS011;25037;49.488;9.900;2023-02-01T07:49:00;4.75;;;2.08;;
39324;SDS011;25037;49.488;9.900;2023-02-01T07:51:26;3.10;;;1.67;;
39324;SDS011;25037;49.488;9.900;2023-02-01T07:53:53;4.25;;;2.17;;
39324;SDS011;25037;49.488;9.900;2023-02-01T07:56:21;6.43;;;2.67;;
39324;SDS011;25037;49.488;9.900;2023-02-01T07:58:52;5.00;;;2.75;;
39324;SDS011;25037;49.488;9.900;2023-02-01T08:01:22;5.88;;;3.05;;
39324;SDS011;25037;49.488;9.900;2023-02-01T08:03:51;7.15;;;2.88;;
39324;SDS011;25037;49.488;9.900;2023-02-01T08:06:22;6.07;;;3.50;;
39324;SDS011;25037;49.488;9.900;2023-02-01T08:08:50;8.15;;;3.10;;
39324;SDS011;25037;49.488;9.900;2023-02-01T08:11:17;6.93;;;3.35;;
39324;SDS011;25037;49.488;9.900;2023-02-01T08:13:45;7.07;;;3.90;;
39324;SDS011;25037;49.488;9.900;2023-02-01T08:16:12;6.00;;;3.75;;
39324;SDS011;25037;49.488;9.900;2023-02-01T08:18:40;5.88;;;3.33;;
39324;SDS011;25037;49.488;9.900;2023-02-01T08:21:08;4.82;;;3.58;;
39324;SDS011;25037;49.488;9.900;2023-02-01T08:23:37;8.60;;;4.25;;
39324;SDS011;25037;49.488;9.900;2023-02-01T08:26:12;10.23;;;5.00;;
39324;SDS011;25037;49.488;9.900;2023-02-01T08:28:45;11.23;;;4.25;;
39324;SDS011;25037;49.488;9.900;2023-02-01T08:31:15;12.80;;;6.25;;
39324;SDS011;25037;49.488;9.900;2023-02-01T08:33:43;11.05;;;5.00;;
39324;SDS011;25037;49.488;9.900;2023-02-01T08:36:13;9.35;;;4.07;;
39324;SDS011;25037;49.488;9.900;2023-02-01T08:38:40;10.98;;;5.45;;
39324;SDS011;25037;49.488;9.900;2023-02-01T08:41:08;7.63;;;3.58;;
39324;SDS011;25037;49.488;9.900;2023-02-01T08:43:39;11.05;;;4.53;;
39324;SDS011;25037;49.488;9.900;2023-02-01T08:46:07;7.53;;;3.60;;
39324;SDS011;25037;49.488;9.900;2023-02-01T08:48:34;8.55;;;3.60;;
39324;SDS011;25037;49.488;9.900;2023-02-01T08:51:02;6.53;;;3.40;;
39324;SDS011;25037;49.488;9.900;2023-02-01T08:53:31;5.93;;;3.03;;
39324;SDS011;25037;49.488;9.900;2023-02-01T08:55:57;9.32;;;3.85;;
39324;SDS011;25037;49.488;9.900;2023-02-01T08:58:24;7.15;;;3.25;;
39324;SDS011;25037;49.488;9.900;2023-02-01T09:00:51;9.18;;;3.00;;
39324;SDS011;25037;49.488;9.900;2023-02-01T09:03:18;8.10;;;3.25;;
39324;SDS011;25037;49.488;9.900;2023-02-01T09:05:45;6.15;;;3.00;;
39324;SDS011;25037;49.488;9.900;2023-02-01T09:08:15;5.63;;;3.05;;
39324;SDS011;25037;49.488;9.900;2023-02-01T09:10:44;8.38;;;3.05;;
39324;SDS011;25037;49.488;9.900;2023-02-01T09:13:11;6.63;;;3.15;;
39324;SDS011;25037;49.488;9.900;2023-02-01T09:15:38;8.15;;;3.17;;
39324;SDS011;25037;49.488;9.900;2023-02-01T09:18:05;7.95;;;3.17;;
39324;SDS011;25037;49.488;9.900;2023-02-01T09:20:31;10.65;;;2.92;;
39324;SDS011;25037;49.488;9.900;2023-02-01T09:22:58;8.90;;;3.25;;
39324;SDS011;25037;49.488;9.900;2023-02-01T09:25:26;9.98;;;3.35;;
39324;SDS011;25037;49.488;9.900;2023-02-01T09:27:52;11.93;;;3.13;;
39324;SDS011;25037;49.488;9.900;2023-02-01T09:30:19;9.40;;;2.72;;
39324;SDS011;25037;49.488;9.900;2023-02-01T09:32:46;10.27;;;3.53;;
39324;SDS011;25037;49.488;9.900;2023-02-01T09:35:12;9.55;;;2.97;;
39324;SDS011;25037;49.488;9.900;2023-02-01T09:37:39;8.77;;;2.72;;
39324;SDS011;25037;49.488;9.900;2023-02-01T09:40:06;9.13;;;3.08;;
39324;SDS011;25037;49.488;9.900;2023-02-01T09:45:55;9.30;;;3.25;;
39324;SDS011;25037;49.488;9.900;2023-02-01T09:48:36;6.95;;;2.90;;
39324;SDS011;25037;49.488;9.900;2023-02-01T09:51:11;9.13;;;3.45;;
39324;SDS011;25037;49.488;9.900;2023-02-01T09:53:42;6.30;;;2.83;;
39324;SDS011;25037;49.488;9.900;2023-02-01T09:56:13;8.65;;;3.38;;
39324;SDS011;25037;49.488;9.900;2023-02-01T09:59:00;9.05;;;3.05;;
39324;SDS011;25037;49.488;9.900;2023-02-01T10:01:34;6.60;;;2.60;;
39324;SDS011;25037;49.488;9.900;2023-02-01T10:04:03;7.80;;;3.13;;
39324;SDS011;25037;49.488;9.900;2023-02-01T10:06:40;8.15;;;2.40;;
39324;SDS011;25037;49.488;9.900;2023-02-01T10:11:49;10.88;;;2.70;;
39324;SDS011;25037;49.488;9.900;2023-02-01T10:17:14;6.70;;;2.53;;
39324;SDS011;25037;49.488;9.900;2023-02-01T10:20:03;7.85;;;3.22;;
39324;SDS011;25037;49.488;9.900;2023-02-01T10:22:52;9.57;;;3.20;;
39324;SDS011;25037;49.488;9.900;2023-02-01T10:25:53;6.03;;;2.58;;
39324;SDS011;25037;49.488;9.900;2023-02-01T10:28:54;8.05;;;3.08;;
39324;SDS011;25037;49.488;9.900;2023-02-01T10:31:31;9.05;;;3.10;;
39324;SDS011;25037;49.488;9.900;2023-02-01T10:34:06;8.00;;;2.65;;
39324;SDS011;25037;49.488;9.900;2023-02-01T10:36:52;8.50;;;3.53;;
39324;SDS011;25037;49.488;9.900;2023-02-01T10:39:34;8.95;;;2.90;;
39324;SDS011;25037;49.488;9.900;2023-02-01T10:42:03;8.00;;;2.45;;
39324;SDS011;25037;49.488;9.900;2023-02-01T10:44:30;9.93;;;3.63;;
39324;SDS011;25037;49.488;9.900;2023-02-01T10:46:59;9.73;;;2.72;;
39324;SDS011;25037;49.488;9.900;2023-02-01T10:49:31;9.00;;;3.08;;
39324;SDS011;25037;49.488;9.900;2023-02-01T10:52:07;10.00;;;2.22;;
39324;SDS011;25037;49.488;9.900;2023-02-01T10:54:50;8.18;;;2.13;;
39324;SDS011;25037;49.488;9.900;2023-02-01T10:57:23;8.60;;;2.60;;
39324;SDS011;25037;49.488;9.900;2023-02-01T10:59:52;9.95;;;3.20;;
39324;SDS011;25037;49.488;9.900;2023-02-01T11:02:20;6.15;;;2.40;;
39324;SDS011;25037;49.488;9.900;2023-02-01T11:04:58;10.68;;;3.25;;
39324;SDS011;25037;49.488;9.900;2023-02-01T11:07:28;9.45;;;2.63;;
39324;SDS011;25037;49.488;9.900;2023-02-01T11:09:55;8.45;;;2.60;;
39324;SDS011;25037;49.488;9.900;2023-02-01T11:12:28;7.65;;;2.30;;
39324;SDS011;25037;49.488;9.900;2023-02-01T11:15:15;8.10;;;2.30;;
39324;SDS011;25037;49.488;9.900;2023-02-01T11:17:48;9.90;;;2.70;;
39324;SDS011;25037;49.488;9.900;2023-02-01T11:22:57;7.40;;;2.38;;
39324;SDS011;25037;49.488;9.900;2023-02-01T11:25:24;8.38;;;2.30;;
39324;SDS011;25037;49.488;9.900;2023-02-01T11:27:53;8.73;;;2.72;;
39324;SDS011;25037;49.488;9.900;2023-02-01T11:30:40;9.05;;;2.80;;
39324;SDS011;25037;49.488;9.900;2023-02-01T11:33:19;9.38;;;3.40;;
39324;SDS011;25037;49.488;9.900;2023-02-01T11:35:52;9.07;;;2.90;;
39324;SDS011;25037;49.488;9.900;2023-02-01T11:38:20;10.90;;;3.70;;
39324;SDS011;25037;49.488;9.900;2023-02-01T11:40:52;10.15;;;3.03;;
39324;SDS011;25037;49.488;9.900;2023-02-01T11:46:01;8.90;;;2.63;;
39324;SDS011;25037;49.488;9.900;2023-02-01T11:48:30;9.60;;;2.88;;
39324;SDS011;25037;49.488;9.900;2023-02-01T11:51:07;8.10;;;3.10;;
39324;SDS011;25037;49.488;9.900;2023-02-01T11:56:23;9.88;;;2.67;;
39324;SDS011;25037;49.488;9.900;2023-02-01T12:10:20;10.30;;;2.65;;
39324;SDS011;25037;49.488;9.900;2023-02-01T12:13:21;7.70;;;2.50;;
39324;SDS011;25037;49.488;9.900;2023-02-01T12:27:40;10.97;;;3.20;;
39324;SDS011;25037;49.488;9.900;2023-02-01T12:35:38;8.73;;;2.25;;
39324;SDS011;25037;49.488;9.900;2023-02-01T12:44:04;9.68;;;2.10;;
39324;SDS011;25037;49.488;9.900;2023-02-01T12:49:41;9.68;;;2.10;;
39324;SDS011;25037;49.488;9.900;2023-02-01T12:52:14;10.40;;;2.30;;
39324;SDS011;25037;49.488;9.900;2023-02-01T12:54:53;13.43;;;2.58;;
39324;SDS011;25037;49.488;9.900;2023-02-01T12:57:37;7.30;;;1.75;;
39324;SDS011;25037;49.488;9.900;2023-02-01T13:00:13;11.05;;;2.53;;
39324;SDS011;25037;49.488;9.900;2023-02-01T13:03:05;8.88;;;2.40;;
39324;SDS011;25037;49.488;9.900;2023-02-01T13:08:45;11.95;;;3.08;;
39324;SDS011;25037;49.488;9.900;2023-02-01T13:11:24;6.75;;;2.20;;
39324;SDS011;25037;49.488;9.900;2023-02-01T13:16:48;8.55;;;2.38;;
39324;SDS011;25037;49.488;9.900;2023-02-01T13:19:28;9.43;;;1.88;;
39324;SDS011;25037;49.488;9.900;2023-02-01T13:22:28;11.25;;;2.60;;
39324;SDS011;25037;49.488;9.900;2023-02-01T13:24:58;8.93;;;2.13;;
39324;SDS011;25037;49.488;9.900;2023-02-01T13:27:28;12.07;;;2.60;;
39324;SDS011;25037;49.488;9.900;2023-02-01T13:29:57;14.32;;;2.42;;
39324;SDS011;25037;49.488;9.900;2023-02-01T13:35:41;10.30;;;2.65;;
39324;SDS011;25037;49.488;9.900;2023-02-01T13:41:12;8.90;;;2.28;;
39324;SDS011;25037;49.488;9.900;2023-02-01T13:44:05;11.30;;;2.63;;
39324;SDS011;25037;49.488;9.900;2023-02-01T13:46:43;10.38;;;3.22;;
39324;SDS011;25037;49.488;9.900;2023-02-01T13:49:19;12.00;;;2.83;;
39324;SDS011;25037;49.488;9.900;2023-02-01T13:51:53;11.55;;;2.67;;
39324;SDS011;25037;49.488;9.900;2023-02-01T13:54:33;9.90;;;2.28;;
39324;SDS011;25037;49.488;9.900;2023-02-01T13:57:06;16.13;;;2.60;;
39324;SDS011;25037;49.488;9.900;2023-02-01T14:05:02;12.38;;;2.47;;
39324;SDS011;25037;49.488;9.900;2023-02-01T14:13:22;10.27;;;2.30;;
39324;SDS011;25037;49.488;9.900;2023-02-01T14:26:46;9.30;;;2.25;;
39324;SDS011;25037;49.488;9.900;2023-02-01T14:42:24;10.13;;;2.33;;
39324;SDS011;25037;49.488;9.900;2023-02-01T14:47:48;10.52;;;2.20;;
39324;SDS011;25037;49.488;9.900;2023-02-01T14:50:21;9.25;;;2.28;;
39324;SDS011;25037;49.488;9.900;2023-02-01T14:55:49;13.70;;;2.53;;
39324;SDS011;25037;49.488;9.900;2023-02-01T14:58:29;9.77;;;2.13;;
39324;SDS011;25037;49.488;9.900;2023-02-01T15:00:59;10.98;;;1.80;;
39324;SDS011;25037;49.488;9.900;2023-02-01T15:03:34;13.02;;;2.88;;
39324;SDS011;25037;49.488;9.900;2023-02-01T15:08:57;10.88;;;2.28;;
39324;SDS011;25037;49.488;9.900;2023-02-01T15:14:39;7.32;;;1.50;;
39324;SDS011;25037;49.488;9.900;2023-02-01T15:17:21;10.73;;;2.20;;
39324;SDS011;25037;49.488;9.900;2023-02-01T15:19:57;10.80;;;2.35;;
39324;SDS011;25037;49.488;9.900;2023-02-01T15:22:27;8.73;;;2.63;;
39324;SDS011;25037;49.488;9.900;2023-02-01T15:24:55;11.18;;;2.25;;
39324;SDS011;25037;49.488;9.900;2023-02-01T15:27:24;11.30;;;2.25;;
39324;SDS011;25037;49.488;9.900;2023-02-01T15:29:51;10.32;;;1.95;;
39324;SDS011;25037;49.488;9.900;2023-02-01T15:32:33;14.07;;;2.35;;
39324;SDS011;25037;49.488;9.900;2023-02-01T15:35:01;9.60;;;2.63;;
39324;SDS011;25037;49.488;9.900;2023-02-01T15:37:28;9.23;;;2.22;;
39324;SDS011;25037;49.488;9.900;2023-02-01T15:42:37;9.18;;;2.33;;
39324;SDS011;25037;49.488;9.900;2023-02-01T15:45:16;10.38;;;2.38;;
39324;SDS011;25037;49.488;9.900;2023-02-01T15:47:49;14.73;;;2.72;;
39324;SDS011;25037;49.488;9.900;2023-02-01T15:50:19;11.65;;;2.65;;
39324;SDS011;25037;49.488;9.900;2023-02-01T15:52:50;13.70;;;2.35;;
39324;SDS011;25037;49.488;9.900;2023-02-01T15:55:30;12.25;;;2.70;;
39324;SDS011;25037;49.488;9.900;2023-02-01T15:58:21;12.77;;;2.70;;
39324;SDS011;25037;49.488;9.900;2023-02-01T16:00:50;10.05;;;2.95;;
39324;SDS011;25037;49.488;9.900;2023-02-01T16:03:34;10.73;;;2.05;;
39324;SDS011;25037;49.488;9.900;2023-02-01T16:08:32;10.30;;;2.10;;
39324;SDS011;25037;49.488;9.900;2023-02-01T16:11:12;10.15;;;2.53;;
39324;SDS011;25037;49.488;9.900;2023-02-01T16:13:40;11.35;;;2.58;;
39324;SDS011;25037;49.488;9.900;2023-02-01T16:16:07;9.52;;;2.15;;
39324;SDS011;25037;49.488;9.900;2023-02-01T16:18:40;10.80;;;1.97;;
39324;SDS011;25037;49.488;9.900;2023-02-01T16:21:08;11.82;;;1.92;;
39324;SDS011;25037;49.488;9.900;2023-02-01T16:23:35;12.52;;;3.40;;
39324;SDS011;25037;49.488;9.900;2023-02-01T16:26:03;8.20;;;2.28;;
39324;SDS011;25037;49.488;9.900;2023-02-01T16:28:30;11.40;;;2.42;;
39324;SDS011;25037;49.488;9.900;2023-02-01T16:30:57;10.48;;;2.75;;
39324;SDS011;25037;49.488;9.900;2023-02-01T16:33:24;10.48;;;1.95;;
39324;SDS011;25037;49.488;9.900;2023-02-01T16:35:51;11.50;;;2.72;;
39324;SDS011;25037;49.488;9.900;2023-02-01T16:38:21;9.40;;;2.35;;
39324;SDS011;25037;49.488;9.900;2023-02-01T16:40:49;14.85;;;3.35;;
39324;SDS011;25037;49.488;9.900;2023-02-01T16:43:21;12.93;;;3.42;;
39324;SDS011;25037;49.488;9.900;2023-02-01T16:45:49;13.38;;;3.10;;
39324;SDS011;25037;49.488;9.900;2023-02-01T16:50:50;11.57;;;2.55;;
39324;SDS011;25037;49.488;9.900;2023-02-01T16:53:19;10.15;;;2.65;;
39324;SDS011;25037;49.488;9.900;2023-02-01T16:55:47;9.40;;;2.00;;
39324;SDS011;25037;49.488;9.900;2023-02-01T16:58:16;8.30;;;1.90;;
39324;SDS011;25037;49.488;9.900;2023-02-01T17:00:43;9.48;;;2.83;;
39324;SDS011;25037;49.488;9.900;2023-02-01T17:03:10;8.00;;;2.47;;
39324;SDS011;25037;49.488;9.900;2023-02-01T17:05:49;10.95;;;2.28;;
39324;SDS011;25037;49.488;9.900;2023-02-01T17:08:19;7.93;;;1.88;;
39324;SDS011;25037;49.488;9.900;2023-02-01T17:10:52;10.93;;;1.95;;
39324;SDS011;25037;49.488;9.900;2023-02-01T17:13:19;11.18;;;2.10;;
39324;SDS011;25037;49.488;9.900;2023-02-01T17:15:49;12.25;;;2.10;;
39324;SDS011;25037;49.488;9.900;2023-02-01T17:18:31;12.18;;;2.47;;
39324;SDS011;25037;49.488;9.900;2023-02-01T17:21:00;7.43;;;2.33;;
39324;SDS011;25037;49.488;9.900;2023-02-01T17:23:30;7.97;;;1.90;;
39324;SDS011;25037;49.488;9.900;2023-02-01T17:25:57;12.63;;;2.53;;
39324;SDS011;25037;49.488;9.900;2023-02-01T17:28:24;12.32;;;2.53;;
39324;SDS011;25037;49.488;9.900;2023-02-01T17:30:51;10.77;;;2.30;;
39324;SDS011;25037;49.488;9.900;2023-02-01T17:33:23;6.85;;;1.80;;
39324;SDS011;25037;49.488;9.900;2023-02-01T17:36:01;10.30;;;2.30;;
39324;SDS011;25037;49.488;9.900;2023-02-01T17:38:31;11.02;;;2.25;;
39324;SDS011;25037;49.488;9.900;2023-02-01T17:40:58;9.45;;;2.25;;
39324;SDS011;25037;49.488;9.900;2023-02-01T17:43:25;7.57;;;2.40;;
39324;SDS011;25037;49.488;9.900;2023-02-01T17:45:52;12.93;;;2.70;;
39324;SDS011;25037;49.488;9.900;2023-02-01T17:48:22;8.35;;;2.47;;